sensor_id;sensor_type;location;lat;lon;timestamp;P1;durP1;ratioP1;P2;durP2;ratioP2
34278;SDS011;20538;51.528;9.942;2023-02-15T00:01:54;53.25;;;23.05;;
34278;SDS011;20538;51.528;9.942;2023-02-15T00:04:21;47.05;;;21.33;;
34278;SDS011;20538;51.528;9.942;2023-02-15T00:06:49;50.92;;;22.48;;
34278;SDS011;20538;51.528;9.942;2023-02-15T00:09:15;48.30;;;21.15;;
34278;SDS011;20538;51.528;9.942;2023-02-15T00:11:41;49.88;;;21.00;;
34278;SDS011;20538;51.528;9.942;2023-02-15T00:14:16;47.58;;;21.52;;
34278;SDS011;20538;51.528;9.942;2023-02-15T00:16:46;45.67;;;21.95;;
34278;SDS011;20538;51.528;9.942;2023-02-15T00:19:13;53.88;;;20.77;;
34278;SDS011;20538;51.528;9.942;2023-02-15T00:21:41;45.55;;;20.17;;
34278;SDS011;20538;51.528;9.942;2023-02-15T00:24:07;48.53;;;22.25;;
34278;SDS011;20538;51.528;9.942;2023-02-15T00:26:35;62.40;;;24.52;;
34278;SDS011;20538;51.528;9.942;2023-02-15T00:29:03;50.90;;;21.10;;
34278;SDS011;20538;51.528;9.942;2023-02-15T00:31:29;52.03;;;23.10;;
34278;SDS011;20538;51.528;9.942;2023-02-15T00:34:04;54.65;;;23.45;;
34278;SDS011;20538;51.528;9.942;2023-02-15T00:36:35;48.75;;;22.13;;
34278;SDS011;20538;51.528;9.942;2023-02-15T00:39:01;50.30;;;21.58;;
34278;SDS011;20538;51.528;9.942;2023-02-15T00:41:29;50.67;;;23.30;;
34278;SDS011;20538;51.528;9.942;2023-02-15T00:43:55;46.33;;;22.25;;
34278;SDS011;20538;51.528;9.942;2023-02-15T00:46:21;51.45;;;22.30;;
34278;SDS011;20538;51.528;9.942;2023-02-15T00:48:47;55.10;;;22.75;;
34278;SDS011;20538;51.528;9.942;2023-02-15T00:51:13;46.30;;;21.40;;
34278;SDS011;20538;51.528;9.942;2023-02-15T00:53:39;39.83;;;20.92;;
34278;SDS011;20538;51.528;9.942;2023-02-15T00:56:04;45.08;;;21.30;;
34278;SDS011;20538;51.528;9.942;2023-02-15T00:58:30;42.67;;;21.48;;
34278;SDS011;20538;51.528;9.942;2023-02-15T01:01:01;43.78;;;20.52;;
34278;SDS011;20538;51.528;9.942;2023-02-15T01:05:57;43.60;;;19.50;;
34278;SDS011;20538;51.528;9.942;2023-02-15T01:08:23;47.90;;;20.58;;
34278;SDS011;20538;51.528;9.942;2023-02-15T01:10:48;42.28;;;21.00;;
34278;SDS011;20538;51.528;9.942;2023-02-15T01:13:15;46.25;;;21.80;;
34278;SDS011;20538;51.528;9.942;2023-02-15T01:15:41;50.20;;;20.98;;
34278;SDS011;20538;51.528;9.942;2023-02-15T01:18:07;48.15;;;21.00;;
34278;SDS011;20538;51.528;9.942;2023-02-15T01:20:34;46.00;;;19.58;;
34278;SDS011;20538;51.528;9.942;2023-02-15T01:23:04;44.30;;;19.95;;
34278;SDS011;20538;51.528;9.942;2023-02-15T01:25:30;47.00;;;20.90;;
34278;SDS011;20538;51.528;9.942;2023-02-15T01:27:58;43.25;;;20.40;;
34278;SDS011;20538;51.528;9.942;2023-02-15T01:30:24;37.58;;;19.13;;
34278;SDS011;20538;51.528;9.942;2023-02-15T01:32:49;40.90;;;19.88;;
34278;SDS011;20538;51.528;9.942;2023-02-15T01:35:15;42.25;;;20.17;;
34278;SDS011;20538;51.528;9.942;2023-02-15T01:37:40;40.10;;;19.63;;
34278;SDS011;20538;51.528;9.942;2023-02-15T01:40:07;42.95;;;20.38;;
34278;SDS011;20538;51.528;9.942;2023-02-15T01:42:37;39.42;;;18.83;;
34278;SDS011;20538;51.528;9.942;2023-02-15T01:45:03;36.67;;;18.08;;
34278;SDS011;20538;51.528;9.942;2023-02-15T01:47:39;38.70;;;19.67;;
34278;SDS011;20538;51.528;9.942;2023-02-15T01:55:23;36.05;;;16.83;;
34278;SDS011;20538;51.528;9.942;2023-02-15T01:57:50;38.13;;;18.15;;
34278;SDS011;20538;51.528;9.942;2023-02-15T02:00:16;33.67;;;17.30;;
34278;SDS011;20538;51.528;9.942;2023-02-15T02:02:43;36.25;;;16.92;;
34278;SDS011;20538;51.528;9.942;2023-02-15T02:05:12;39.75;;;18.13;;
34278;SDS011;20538;51.528;9.942;2023-02-15T02:07:39;37.72;;;17.92;;
34278;SDS011;20538;51.528;9.942;2023-02-15T02:10:11;41.47;;;18.73;;
34278;SDS011;20538;51.528;9.942;2023-02-15T02:12:40;36.97;;;17.38;;
34278;SDS011;20538;51.528;9.942;2023-02-15T02:15:09;34.17;;;17.20;;
34278;SDS011;20538;51.528;9.942;2023-02-15T02:36:08;36.30;;;17.25;;
34278;SDS011;20538;51.528;9.942;2023-02-15T02:38:58;40.67;;;17.63;;
34278;SDS011;20538;51.528;9.942;2023-02-15T02:42:17;33.05;;;15.50;;
34278;SDS011;20538;51.528;9.942;2023-02-15T02:44:47;34.67;;;16.33;;
34278;SDS011;20538;51.528;9.942;2023-02-15T02:47:22;35.60;;;16.70;;
34278;SDS011;20538;51.528;9.942;2023-02-15T02:49:59;36.50;;;17.27;;
34278;SDS011;20538;51.528;9.942;2023-02-15T02:55:03;36.58;;;16.65;;
34278;SDS011;20538;51.528;9.942;2023-02-15T02:57:33;40.33;;;17.58;;
34278;SDS011;20538;51.528;9.942;2023-02-15T03:00:03;33.38;;;15.75;;
34278;SDS011;20538;51.528;9.942;2023-02-15T03:02:32;35.13;;;17.00;;
34278;SDS011;20538;51.528;9.942;2023-02-15T03:05:03;31.13;;;15.70;;
34278;SDS011;20538;51.528;9.942;2023-02-15T03:07:34;35.60;;;17.63;;
34278;SDS011;20538;51.528;9.942;2023-02-15T03:10:02;37.97;;;17.55;;
34278;SDS011;20538;51.528;9.942;2023-02-15T03:12:34;33.05;;;16.52;;
34278;SDS011;20538;51.528;9.942;2023-02-15T03:15:06;36.78;;;16.15;;
34278;SDS011;20538;51.528;9.942;2023-02-15T03:17:44;35.65;;;16.55;;
34278;SDS011;20538;51.528;9.942;2023-02-15T03:20:24;33.30;;;16.65;;
34278;SDS011;20538;51.528;9.942;2023-02-15T03:22:55;28.60;;;14.38;;
34278;SDS011;20538;51.528;9.942;2023-02-15T03:25:28;32.00;;;15.30;;
34278;SDS011;20538;51.528;9.942;2023-02-15T03:30:28;32.97;;;15.10;;
34278;SDS011;20538;51.528;9.942;2023-02-15T03:32:56;30.67;;;15.25;;
34278;SDS011;20538;51.528;9.942;2023-02-15T03:35:25;34.70;;;15.95;;
34278;SDS011;20538;51.528;9.942;2023-02-15T03:38:02;30.88;;;14.80;;
34278;SDS011;20538;51.528;9.942;2023-02-15T03:40:37;32.80;;;15.73;;
34278;SDS011;20538;51.528;9.942;2023-02-15T03:45:55;34.38;;;16.75;;
34278;SDS011;20538;51.528;9.942;2023-02-15T03:48:29;32.60;;;14.73;;
34278;SDS011;20538;51.528;9.942;2023-02-15T03:51:06;35.72;;;16.83;;
34278;SDS011;20538;51.528;9.942;2023-02-15T03:53:54;38.17;;;17.13;;
34278;SDS011;20538;51.528;9.942;2023-02-15T03:56:21;34.33;;;16.83;;
34278;SDS011;20538;51.528;9.942;2023-02-15T03:58:47;35.42;;;17.38;;
34278;SDS011;20538;51.528;9.942;2023-02-15T04:07:15;35.75;;;16.70;;
34278;SDS011;20538;51.528;9.942;2023-02-15T04:09:41;36.60;;;16.23;;
34278;SDS011;20538;51.528;9.942;2023-02-15T04:12:25;34.83;;;16.60;;
34278;SDS011;20538;51.528;9.942;2023-02-15T04:14:51;31.70;;;16.65;;
34278;SDS011;20538;51.528;9.942;2023-02-15T04:17:36;32.30;;;15.98;;
34278;SDS011;20538;51.528;9.942;2023-02-15T04:20:02;35.85;;;17.23;;
34278;SDS011;20538;51.528;9.942;2023-02-15T04:22:47;33.08;;;16.38;;
34278;SDS011;20538;51.528;9.942;2023-02-15T04:25:31;34.22;;;16.70;;
34278;SDS011;20538;51.528;9.942;2023-02-15T04:27:56;36.95;;;16.60;;
34278;SDS011;20538;51.528;9.942;2023-02-15T04:30:23;34.55;;;17.05;;
34278;SDS011;20538;51.528;9.942;2023-02-15T04:32:50;37.92;;;17.55;;
34278;SDS011;20538;51.528;9.942;2023-02-15T04:35:16;36.95;;;17.13;;
34278;SDS011;20538;51.528;9.942;2023-02-15T04:37:43;31.83;;;15.50;;
34278;SDS011;20538;51.528;9.942;2023-02-15T04:40:11;34.83;;;15.70;;
34278;SDS011;20538;51.528;9.942;2023-02-15T04:42:38;36.85;;;16.27;;
34278;SDS011;20538;51.528;9.942;2023-02-15T04:45:04;39.05;;;17.65;;
34278;SDS011;20538;51.528;9.942;2023-02-15T04:47:30;34.13;;;15.95;;
34278;SDS011;20538;51.528;9.942;2023-02-15T04:49:56;33.42;;;16.45;;
34278;SDS011;20538;51.528;9.942;2023-02-15T04:52:21;32.83;;;15.88;;
34278;SDS011;20538;51.528;9.942;2023-02-15T04:54:47;31.80;;;16.15;;
34278;SDS011;20538;51.528;9.942;2023-02-15T04:57:13;30.20;;;15.73;;
34278;SDS011;20538;51.528;9.942;2023-02-15T04:59:38;31.02;;;13.90;;
34278;SDS011;20538;51.528;9.942;2023-02-15T05:02:04;32.78;;;15.93;;
34278;SDS011;20538;51.528;9.942;2023-02-15T05:04:30;31.25;;;15.80;;
34278;SDS011;20538;51.528;9.942;2023-02-15T05:06:55;32.33;;;15.40;;
34278;SDS011;20538;51.528;9.942;2023-02-15T05:09:21;34.60;;;16.00;;
34278;SDS011;20538;51.528;9.942;2023-02-15T05:11:46;28.20;;;13.63;;
34278;SDS011;20538;51.528;9.942;2023-02-15T05:14:12;32.38;;;14.85;;
34278;SDS011;20538;51.528;9.942;2023-02-15T05:16:38;31.10;;;15.60;;
34278;SDS011;20538;51.528;9.942;2023-02-15T05:19:03;28.88;;;14.45;;
34278;SDS011;20538;51.528;9.942;2023-02-15T05:21:29;34.83;;;16.25;;
34278;SDS011;20538;51.528;9.942;2023-02-15T05:23:56;28.88;;;15.23;;
34278;SDS011;20538;51.528;9.942;2023-02-15T05:26:23;31.08;;;15.50;;
34278;SDS011;20538;51.528;9.942;2023-02-15T05:29:27;33.60;;;15.50;;
34278;SDS011;20538;51.528;9.942;2023-02-15T05:31:54;34.38;;;15.85;;
34278;SDS011;20538;51.528;9.942;2023-02-15T05:34:19;35.90;;;15.73;;
34278;SDS011;20538;51.528;9.942;2023-02-15T05:36:45;32.55;;;16.17;;
34278;SDS011;20538;51.528;9.942;2023-02-15T05:39:10;32.80;;;15.10;;
34278;SDS011;20538;51.528;9.942;2023-02-15T05:41:36;34.92;;;15.73;;
34278;SDS011;20538;51.528;9.942;2023-02-15T05:44:02;28.35;;;14.13;;
34278;SDS011;20538;51.528;9.942;2023-02-15T05:46:27;28.50;;;14.40;;
34278;SDS011;20538;51.528;9.942;2023-02-15T05:48:53;30.23;;;17.50;;
34278;SDS011;20538;51.528;9.942;2023-02-15T05:51:18;31.35;;;15.60;;
34278;SDS011;20538;51.528;9.942;2023-02-15T05:53:44;32.00;;;15.30;;
34278;SDS011;20538;51.528;9.942;2023-02-15T05:56:10;27.33;;;13.88;;
34278;SDS011;20538;51.528;9.942;2023-02-15T05:58:38;28.58;;;13.80;;
34278;SDS011;20538;51.528;9.942;2023-02-15T06:01:12;27.92;;;14.02;;
34278;SDS011;20538;51.528;9.942;2023-02-15T06:03:42;31.52;;;15.18;;
34278;SDS011;20538;51.528;9.942;2023-02-15T06:06:09;26.27;;;13.98;;
34278;SDS011;20538;51.528;9.942;2023-02-15T06:08:35;26.80;;;13.80;;
34278;SDS011;20538;51.528;9.942;2023-02-15T06:11:02;31.85;;;15.02;;
34278;SDS011;20538;51.528;9.942;2023-02-15T06:13:28;29.95;;;14.70;;
34278;SDS011;20538;51.528;9.942;2023-02-15T06:15:54;25.58;;;13.57;;
34278;SDS011;20538;51.528;9.942;2023-02-15T06:18:19;31.63;;;14.68;;
34278;SDS011;20538;51.528;9.942;2023-02-15T06:20:45;32.95;;;15.90;;
34278;SDS011;20538;51.528;9.942;2023-02-15T06:23:11;27.98;;;14.65;;
34278;SDS011;20538;51.528;9.942;2023-02-15T06:25:37;29.90;;;14.88;;
34278;SDS011;20538;51.528;9.942;2023-02-15T06:28:03;28.73;;;14.73;;
34278;SDS011;20538;51.528;9.942;2023-02-15T06:30:28;32.47;;;15.07;;
34278;SDS011;20538;51.528;9.942;2023-02-15T06:32:54;31.65;;;15.07;;
34278;SDS011;20538;51.528;9.942;2023-02-15T06:35:20;31.15;;;14.88;;
34278;SDS011;20538;51.528;9.942;2023-02-15T06:37:46;30.83;;;14.45;;
34278;SDS011;20538;51.528;9.942;2023-02-15T06:40:12;33.03;;;15.68;;
34278;SDS011;20538;51.528;9.942;2023-02-15T06:42:38;31.08;;;15.07;;
34278;SDS011;20538;51.528;9.942;2023-02-15T06:45:04;33.38;;;15.65;;
34278;SDS011;20538;51.528;9.942;2023-02-15T06:47:30;28.52;;;14.48;;
34278;SDS011;20538;51.528;9.942;2023-02-15T06:49:55;29.35;;;15.45;;
34278;SDS011;20538;51.528;9.942;2023-02-15T06:52:22;28.63;;;14.88;;
34278;SDS011;20538;51.528;9.942;2023-02-15T06:54:48;34.88;;;16.95;;
34278;SDS011;20538;51.528;9.942;2023-02-15T06:57:13;35.33;;;16.25;;
34278;SDS011;20538;51.528;9.942;2023-02-15T06:59:39;34.70;;;15.18;;
34278;SDS011;20538;51.528;9.942;2023-02-15T07:04:31;28.90;;;14.43;;
34278;SDS011;20538;51.528;9.942;2023-02-15T07:06:57;26.90;;;14.00;;
34278;SDS011;20538;51.528;9.942;2023-02-15T07:09:22;25.60;;;13.23;;
34278;SDS011;20538;51.528;9.942;2023-02-15T07:11:48;27.30;;;12.98;;
34278;SDS011;20538;51.528;9.942;2023-02-15T07:14:33;25.67;;;12.35;;
34278;SDS011;20538;51.528;9.942;2023-02-15T07:16:58;30.00;;;13.93;;
34278;SDS011;20538;51.528;9.942;2023-02-15T07:19:24;24.15;;;13.32;;
34278;SDS011;20538;51.528;9.942;2023-02-15T07:21:50;29.33;;;13.77;;
34278;SDS011;20538;51.528;9.942;2023-02-15T07:24:15;29.80;;;14.50;;
34278;SDS011;20538;51.528;9.942;2023-02-15T07:26:41;28.77;;;14.13;;
34278;SDS011;20538;51.528;9.942;2023-02-15T07:29:07;27.17;;;13.02;;
34278;SDS011;20538;51.528;9.942;2023-02-15T07:31:32;25.08;;;12.90;;
34278;SDS011;20538;51.528;9.942;2023-02-15T07:33:58;27.73;;;13.93;;
34278;SDS011;20538;51.528;9.942;2023-02-15T07:36:24;26.77;;;14.02;;
34278;SDS011;20538;51.528;9.942;2023-02-15T07:38:49;25.55;;;11.95;;
34278;SDS011;20538;51.528;9.942;2023-02-15T07:41:15;23.90;;;12.23;;
34278;SDS011;20538;51.528;9.942;2023-02-15T07:43:42;24.63;;;12.85;;
34278;SDS011;20538;51.528;9.942;2023-02-15T07:46:10;25.85;;;13.32;;
34278;SDS011;20538;51.528;9.942;2023-02-15T07:48:38;24.90;;;13.05;;
34278;SDS011;20538;51.528;9.942;2023-02-15T07:51:06;24.48;;;12.98;;
34278;SDS011;20538;51.528;9.942;2023-02-15T07:53:33;27.38;;;13.68;;
34278;SDS011;20538;51.528;9.942;2023-02-15T07:56:00;28.13;;;12.27;;
34278;SDS011;20538;51.528;9.942;2023-02-15T07:58:31;26.85;;;13.35;;
34278;SDS011;20538;51.528;9.942;2023-02-15T08:01:16;28.27;;;13.95;;
34278;SDS011;20538;51.528;9.942;2023-02-15T08:03:46;27.17;;;14.23;;
34278;SDS011;20538;51.528;9.942;2023-02-15T08:06:12;28.00;;;13.55;;
34278;SDS011;20538;51.528;9.942;2023-02-15T08:08:39;28.15;;;13.90;;
34278;SDS011;20538;51.528;9.942;2023-02-15T08:16:36;29.05;;;13.68;;
34278;SDS011;20538;51.528;9.942;2023-02-15T08:21:45;27.20;;;12.95;;
34278;SDS011;20538;51.528;9.942;2023-02-15T08:24:23;23.20;;;12.20;;
34278;SDS011;20538;51.528;9.942;2023-02-15T08:26:53;25.70;;;13.35;;
34278;SDS011;20538;51.528;9.942;2023-02-15T08:29:24;28.08;;;14.48;;
34278;SDS011;20538;51.528;9.942;2023-02-15T08:32:10;29.35;;;15.20;;
34278;SDS011;20538;51.528;9.942;2023-02-15T08:34:39;27.38;;;13.07;;
34278;SDS011;20538;51.528;9.942;2023-02-15T08:37:06;23.92;;;12.13;;
34278;SDS011;20538;51.528;9.942;2023-02-15T08:39:32;21.80;;;10.98;;
34278;SDS011;20538;51.528;9.942;2023-02-15T08:41:57;22.90;;;12.23;;
34278;SDS011;20538;51.528;9.942;2023-02-15T08:44:23;25.42;;;12.80;;
34278;SDS011;20538;51.528;9.942;2023-02-15T08:46:49;26.98;;;12.13;;
34278;SDS011;20538;51.528;9.942;2023-02-15T08:49:16;25.85;;;12.88;;
34278;SDS011;20538;51.528;9.942;2023-02-15T08:51:46;23.02;;;12.40;;
34278;SDS011;20538;51.528;9.942;2023-02-15T08:54:13;24.15;;;12.90;;
34278;SDS011;20538;51.528;9.942;2023-02-15T08:56:43;22.83;;;11.73;;
34278;SDS011;20538;51.528;9.942;2023-02-15T08:59:13;21.80;;;11.18;;
34278;SDS011;20538;51.528;9.942;2023-02-15T09:01:43;24.15;;;12.75;;
34278;SDS011;20538;51.528;9.942;2023-02-15T09:04:10;22.63;;;12.35;;
34278;SDS011;20538;51.528;9.942;2023-02-15T09:06:40;23.50;;;11.85;;
34278;SDS011;20538;51.528;9.942;2023-02-15T09:09:08;23.73;;;12.00;;
34278;SDS011;20538;51.528;9.942;2023-02-15T09:11:43;22.90;;;11.75;;
34278;SDS011;20538;51.528;9.942;2023-02-15T09:14:15;21.40;;;11.48;;
34278;SDS011;20538;51.528;9.942;2023-02-15T09:16:45;21.92;;;11.35;;
34278;SDS011;20538;51.528;9.942;2023-02-15T09:19:13;24.25;;;12.05;;
34278;SDS011;20538;51.528;9.942;2023-02-15T09:21:40;22.02;;;11.10;;
34278;SDS011;20538;51.528;9.942;2023-02-15T09:24:10;23.38;;;12.45;;
34278;SDS011;20538;51.528;9.942;2023-02-15T09:26:39;20.05;;;10.70;;
34278;SDS011;20538;51.528;9.942;2023-02-15T09:29:06;20.55;;;11.35;;
34278;SDS011;20538;51.528;9.942;2023-02-15T09:31:33;20.67;;;11.10;;
34278;SDS011;20538;51.528;9.942;2023-02-15T09:34:04;19.35;;;10.50;;
34278;SDS011;20538;51.528;9.942;2023-02-15T09:36:33;18.10;;;11.30;;
34278;SDS011;20538;51.528;9.942;2023-02-15T09:39:18;21.55;;;10.65;;
34278;SDS011;20538;51.528;9.942;2023-02-15T09:47:12;19.35;;;10.32;;
34278;SDS011;20538;51.528;9.942;2023-02-15T09:49:59;18.00;;;10.18;;
34278;SDS011;20538;51.528;9.942;2023-02-15T09:55:41;20.63;;;9.90;;
34278;SDS011;20538;51.528;9.942;2023-02-15T10:01:17;20.05;;;10.13;;
34278;SDS011;20538;51.528;9.942;2023-02-15T10:09:23;20.75;;;10.57;;
34278;SDS011;20538;51.528;9.942;2023-02-15T10:23:25;18.13;;;10.07;;
34278;SDS011;20538;51.528;9.942;2023-02-15T10:26:18;19.17;;;10.20;;
34278;SDS011;20538;51.528;9.942;2023-02-15T10:28:51;18.70;;;10.95;;
34278;SDS011;20538;51.528;9.942;2023-02-15T10:31:31;24.42;;;9.95;;
34278;SDS011;20538;51.528;9.942;2023-02-15T10:34:18;17.85;;;10.45;;
34278;SDS011;20538;51.528;9.942;2023-02-15T10:39:54;17.48;;;9.70;;
34278;SDS011;20538;51.528;9.942;2023-02-15T10:51:19;16.92;;;10.35;;
34278;SDS011;20538;51.528;9.942;2023-02-15T10:54:00;18.73;;;10.55;;
34278;SDS011;20538;51.528;9.942;2023-02-15T10:56:32;19.70;;;10.30;;
34278;SDS011;20538;51.528;9.942;2023-02-15T11:01:41;20.73;;;11.02;;
34278;SDS011;20538;51.528;9.942;2023-02-15T11:06:50;19.20;;;10.55;;
34278;SDS011;20538;51.528;9.942;2023-02-15T11:09:22;18.38;;;10.52;;
34278;SDS011;20538;51.528;9.942;2023-02-15T11:11:54;18.75;;;9.77;;
34278;SDS011;20538;51.528;9.942;2023-02-15T11:14:35;20.52;;;10.55;;
34278;SDS011;20538;51.528;9.942;2023-02-15T11:17:08;20.60;;;10.65;;
34278;SDS011;20538;51.528;9.942;2023-02-15T11:19:39;19.67;;;10.57;;
34278;SDS011;20538;51.528;9.942;2023-02-15T11:22:13;17.85;;;9.95;;
34278;SDS011;20538;51.528;9.942;2023-02-15T11:24:40;20.30;;;11.05;;
34278;SDS011;20538;51.528;9.942;2023-02-15T11:27:16;21.15;;;10.93;;
34278;SDS011;20538;51.528;9.942;2023-02-15T11:30:04;20.35;;;10.93;;
34278;SDS011;20538;51.528;9.942;2023-02-15T11:32:39;20.38;;;10.77;;
34278;SDS011;20538;51.528;9.942;2023-02-15T11:37:42;21.60;;;11.13;;
34278;SDS011;20538;51.528;9.942;2023-02-15T11:40:22;17.00;;;10.18;;
34278;SDS011;20538;51.528;9.942;2023-02-15T11:43:01;18.05;;;10.38;;
34278;SDS011;20538;51.528;9.942;2023-02-15T11:45:32;21.02;;;11.07;;
34278;SDS011;20538;51.528;9.942;2023-02-15T11:48:08;18.08;;;10.30;;
34278;SDS011;20538;51.528;9.942;2023-02-15T11:50:36;21.08;;;11.00;;
34278;SDS011;20538;51.528;9.942;2023-02-15T11:53:03;19.15;;;10.35;;
34278;SDS011;20538;51.528;9.942;2023-02-15T11:55:34;19.52;;;11.40;;
34278;SDS011;20538;51.528;9.942;2023-02-15T11:58:02;20.80;;;11.18;;
34278;SDS011;20538;51.528;9.942;2023-02-15T12:00:54;20.33;;;10.80;;
34278;SDS011;20538;51.528;9.942;2023-02-15T12:03:43;18.23;;;10.43;;
34278;SDS011;20538;51.528;9.942;2023-02-15T12:06:17;16.80;;;9.70;;
34278;SDS011;20538;51.528;9.942;2023-02-15T12:09:00;18.50;;;10.43;;
34278;SDS011;20538;51.528;9.942;2023-02-15T12:11:45;20.13;;;11.32;;
34278;SDS011;20538;51.528;9.942;2023-02-15T12:14:11;19.02;;;11.40;;
34278;SDS011;20538;51.528;9.942;2023-02-15T12:16:48;20.52;;;10.55;;
34278;SDS011;20538;51.528;9.942;2023-02-15T12:21:51;20.65;;;11.07;;
34278;SDS011;20538;51.528;9.942;2023-02-15T12:24:19;25.10;;;11.65;;
34278;SDS011;20538;51.528;9.942;2023-02-15T12:26:55;18.70;;;10.70;;
34278;SDS011;20538;51.528;9.942;2023-02-15T12:29:41;19.95;;;10.90;;
34278;SDS011;20538;51.528;9.942;2023-02-15T12:32:15;18.48;;;10.85;;
34278;SDS011;20538;51.528;9.942;2023-02-15T12:34:43;18.73;;;10.77;;
34278;SDS011;20538;51.528;9.942;2023-02-15T12:37:15;20.67;;;11.38;;
34278;SDS011;20538;51.528;9.942;2023-02-15T12:39:57;23.20;;;11.32;;
34278;SDS011;20538;51.528;9.942;2023-02-15T12:42:24;23.00;;;12.05;;
34278;SDS011;20538;51.528;9.942;2023-02-15T12:44:55;17.63;;;11.00;;
34278;SDS011;20538;51.528;9.942;2023-02-15T12:47:26;18.50;;;10.63;;
34278;SDS011;20538;51.528;9.942;2023-02-15T12:50:06;19.55;;;10.75;;
34278;SDS011;20538;51.528;9.942;2023-02-15T12:52:49;20.65;;;11.52;;
34278;SDS011;20538;51.528;9.942;2023-02-15T12:55:26;20.10;;;11.38;;
34278;SDS011;20538;51.528;9.942;2023-02-15T12:58:08;30.52;;;12.95;;
34278;SDS011;20538;51.528;9.942;2023-02-15T13:06:53;22.38;;;11.05;;
34278;SDS011;20538;51.528;9.942;2023-02-15T13:09:34;21.02;;;11.23;;
34278;SDS011;20538;51.528;9.942;2023-02-15T13:14:51;20.45;;;11.38;;
34278;SDS011;20538;51.528;9.942;2023-02-15T13:17:32;22.88;;;11.15;;
34278;SDS011;20538;51.528;9.942;2023-02-15T13:20:02;20.50;;;11.00;;
34278;SDS011;20538;51.528;9.942;2023-02-15T13:22:39;21.90;;;11.77;;
34278;SDS011;20538;51.528;9.942;2023-02-15T13:25:17;19.50;;;11.00;;
34278;SDS011;20538;51.528;9.942;2023-02-15T13:27:46;18.60;;;10.50;;
34278;SDS011;20538;51.528;9.942;2023-02-15T13:30:22;21.45;;;11.80;;
34278;SDS011;20538;51.528;9.942;2023-02-15T13:33:36;21.35;;;11.05;;
34278;SDS011;20538;51.528;9.942;2023-02-15T13:35:44;31.70;;;11.07;;
34278;SDS011;20538;51.528;9.942;2023-02-15T13:52:22;17.92;;;10.27;;
34278;SDS011;20538;51.528;9.942;2023-02-15T14:00:44;18.70;;;10.20;;
34278;SDS011;20538;51.528;9.942;2023-02-15T14:09:23;17.70;;;10.25;;
34278;SDS011;20538;51.528;9.942;2023-02-15T14:29:23;19.08;;;10.48;;
34278;SDS011;20538;51.528;9.942;2023-02-15T14:32:09;19.13;;;10.60;;
34278;SDS011;20538;51.528;9.942;2023-02-15T14:34:46;20.05;;;10.48;;
34278;SDS011;20538;51.528;9.942;2023-02-15T14:37:19;16.20;;;9.88;;
34278;SDS011;20538;51.528;9.942;2023-02-15T14:40:36;19.13;;;10.30;;
34278;SDS011;20538;51.528;9.942;2023-02-15T14:43:19;16.25;;;9.55;;
34278;SDS011;20538;51.528;9.942;2023-02-15T14:46:10;19.25;;;9.77;;
34278;SDS011;20538;51.528;9.942;2023-02-15T14:48:56;17.00;;;9.68;;
34278;SDS011;20538;51.528;9.942;2023-02-15T14:54:56;20.50;;;9.90;;
34278;SDS011;20538;51.528;9.942;2023-02-15T14:59:45;19.15;;;10.30;;
34278;SDS011;20538;51.528;9.942;2023-02-15T15:02:27;17.10;;;10.30;;
34278;SDS011;20538;51.528;9.942;2023-02-15T15:05:32;19.20;;;9.70;;
34278;SDS011;20538;51.528;9.942;2023-02-15T15:08:01;17.33;;;9.73;;
34278;SDS011;20538;51.528;9.942;2023-02-15T15:13:00;17.13;;;9.77;;
34278;SDS011;20538;51.528;9.942;2023-02-15T15:18:49;18.13;;;10.07;;
34278;SDS011;20538;51.528;9.942;2023-02-15T15:32:54;18.50;;;10.40;;
34278;SDS011;20538;51.528;9.942;2023-02-15T15:36:07;18.17;;;9.70;;
34278;SDS011;20538;51.528;9.942;2023-02-15T15:39:30;18.80;;;10.38;;
34278;SDS011;20538;51.528;9.942;2023-02-15T15:47:47;21.77;;;11.68;;
34278;SDS011;20538;51.528;9.942;2023-02-15T15:50:46;18.35;;;9.43;;
34278;SDS011;20538;51.528;9.942;2023-02-15T15:53:19;23.30;;;11.73;;
34278;SDS011;20538;51.528;9.942;2023-02-15T15:55:47;19.77;;;10.77;;
34278;SDS011;20538;51.528;9.942;2023-02-15T15:58:19;18.13;;;10.20;;
34278;SDS011;20538;51.528;9.942;2023-02-15T16:01:20;20.92;;;10.35;;
34278;SDS011;20538;51.528;9.942;2023-02-15T16:03:38;20.00;;;10.85;;
34278;SDS011;20538;51.528;9.942;2023-02-15T16:06:25;18.08;;;10.27;;
34278;SDS011;20538;51.528;9.942;2023-02-15T16:08:52;18.60;;;10.88;;
34278;SDS011;20538;51.528;9.942;2023-02-15T16:11:21;20.30;;;10.57;;
34278;SDS011;20538;51.528;9.942;2023-02-15T16:13:49;22.33;;;10.95;;
34278;SDS011;20538;51.528;9.942;2023-02-15T16:16:22;22.05;;;11.48;;
34278;SDS011;20538;51.528;9.942;2023-02-15T16:18:53;21.10;;;10.07;;
34278;SDS011;20538;51.528;9.942;2023-02-15T16:21:26;21.38;;;10.68;;
34278;SDS011;20538;51.528;9.942;2023-02-15T16:29:32;21.35;;;11.13;;
34278;SDS011;20538;51.528;9.942;2023-02-15T16:34:50;26.10;;;12.63;;
34278;SDS011;20538;51.528;9.942;2023-02-15T16:37:26;24.15;;;13.00;;
34278;SDS011;20538;51.528;9.942;2023-02-15T16:39:59;25.73;;;12.98;;
34278;SDS011;20538;51.528;9.942;2023-02-15T16:42:25;28.17;;;13.88;;
34278;SDS011;20538;51.528;9.942;2023-02-15T16:44:53;34.10;;;15.23;;
34278;SDS011;20538;51.528;9.942;2023-02-15T16:47:29;32.42;;;14.85;;
34278;SDS011;20538;51.528;9.942;2023-02-15T16:49:58;30.13;;;13.93;;
34278;SDS011;20538;51.528;9.942;2023-02-15T16:52:27;33.42;;;15.55;;
34278;SDS011;20538;51.528;9.942;2023-02-15T16:54:58;29.15;;;15.07;;
34278;SDS011;20538;51.528;9.942;2023-02-15T16:57:26;31.60;;;14.93;;
34278;SDS011;20538;51.528;9.942;2023-02-15T16:59:57;32.35;;;15.43;;
34278;SDS011;20538;51.528;9.942;2023-02-15T17:02:27;33.70;;;16.77;;
34278;SDS011;20538;51.528;9.942;2023-02-15T17:07:32;31.75;;;16.27;;
34278;SDS011;20538;51.528;9.942;2023-02-15T17:09:58;32.28;;;15.93;;
34278;SDS011;20538;51.528;9.942;2023-02-15T17:17:51;29.60;;;14.95;;
34278;SDS011;20538;51.528;9.942;2023-02-15T17:20:17;29.73;;;14.73;;
34278;SDS011;20538;51.528;9.942;2023-02-15T17:22:45;34.60;;;17.02;;
34278;SDS011;20538;51.528;9.942;2023-02-15T17:25:18;33.78;;;17.25;;
34278;SDS011;20538;51.528;9.942;2023-02-15T17:27:52;34.25;;;17.10;;
34278;SDS011;20538;51.528;9.942;2023-02-15T17:30:32;36.88;;;17.75;;
34278;SDS011;20538;51.528;9.942;2023-02-15T17:33:03;36.88;;;18.15;;
34278;SDS011;20538;51.528;9.942;2023-02-15T17:35:42;39.67;;;19.13;;
34278;SDS011;20538;51.528;9.942;2023-02-15T17:38:18;41.22;;;21.15;;
34278;SDS011;20538;51.528;9.942;2023-02-15T17:40:45;43.78;;;21.35;;
34278;SDS011;20538;51.528;9.942;2023-02-15T17:43:11;38.35;;;20.77;;
34278;SDS011;20538;51.528;9.942;2023-02-15T17:45:41;45.00;;;21.98;;
34278;SDS011;20538;51.528;9.942;2023-02-15T17:48:32;37.05;;;18.90;;
34278;SDS011;20538;51.528;9.942;2023-02-15T17:51:00;40.35;;;19.70;;
34278;SDS011;20538;51.528;9.942;2023-02-15T17:53:27;38.33;;;20.20;;
34278;SDS011;20538;51.528;9.942;2023-02-15T17:55:53;40.30;;;19.63;;
34278;SDS011;20538;51.528;9.942;2023-02-15T17:58:19;42.22;;;21.38;;
34278;SDS011;20538;51.528;9.942;2023-02-15T18:00:46;52.75;;;25.02;;
34278;SDS011;20538;51.528;9.942;2023-02-15T18:03:54;39.90;;;21.65;;
34278;SDS011;20538;51.528;9.942;2023-02-15T18:06:39;46.25;;;23.40;;